Terminal Aerodrome Forecast
Issued by NWS Fort Wayne, IN

Home | Current Version | Previous Version | Text Only | Print | Product List | Glossary On
Versions: 1 2 3 4 5 6 7 8 9 10 11 12 13
000
FTUS43 KIWX 261100
TAFFWA
TAF
KFWA 261120Z 2612/2712 02007KT P6SM SCT100
     FM261600 02012G17KT P6SM BKN045
     FM270000 31006KT P6SM BKN050=

USA.gov is the U.S. government's official web portal to all federal, state and local government web resources and services.